PWSweather.com
Personal Weather Stations
Station Observations
KILMORRI1
Goose Lake, Morris, IL 60450

Goose LakeMorris, IL 60450

Lat: 41.34, Lon: -88.3

Elevation: 523

Station Type:

www.gooselakeweather.com

High Low Average
Temperature 89.2°F31.8°C 70.4°F21.3°C 78.4°F25.8°C
Dew Point 81.2°F27.3°C 69.2°F20.7°C 74.4°F23.6°C
Winds 12.7 mph 20.4 kmh Calm Calm 3.0 mph SE4.8 kmh SE
Wind Gusts 19.6 mph31.5 kmh -- 5.0 mph8.0 kmh
Humidity 98% 74% 88%
Pressure 29.98 in1015.2 mb 29.76 in1007.8 mb -
Precipitation 2.14 in54.4 mm - -
Hour Temp Dew Point Humidity Winds Wind Gusts Pressure Precip Precip Rate Daily Precip Total
12:00 AM 75.3°F24.1°C 73.8°F23.2°C 95% Calm Calm -- 29.91 in1012.9 mb - 0.00 in0.0 mm 0.00 in0.0 mm
12:10 AM 75.1°F23.9°C 73.6°F23.1°C 95% 1.2 mph N1.9 kmh N 1.2 mph1.9 kmh 29.90 in1012.5 mb - 0.00 in0.0 mm 0.00 in0.0 mm
12:20 AM 75.0°F23.9°C 73.5°F23.1°C 95% 1.2 mph N1.9 kmh N 3.5 mph5.6 kmh 29.90 in1012.5 mb - 0.00 in0.0 mm 0.00 in0.0 mm
12:30 AM 74.9°F23.8°C 73.4°F23.0°C 95% 2.3 mph N3.7 kmh N 3.5 mph5.6 kmh 29.90 in1012.5 mb - 0.00 in0.0 mm 0.00 in0.0 mm
12:40 AM 75.5°F24.2°C 73.7°F23.2°C 94% 2.3 mph E3.7 kmh E 3.5 mph5.6 kmh 29.90 in1012.5 mb - 0.00 in0.0 mm 0.00 in0.0 mm
12:50 AM 75.5°F24.2°C 73.3°F22.9°C 93% 1.2 mph E1.9 kmh E 2.3 mph3.7 kmh 29.90 in1012.5 mb - 0.00 in0.0 mm 0.00 in0.0 mm
01:00 AM 75.7°F24.3°C 73.5°F23.1°C 93% Calm Calm 1.2 mph1.9 kmh 29.90 in1012.5 mb - 0.00 in0.0 mm 0.00 in0.0 mm
01:10 AM 76.2°F24.6°C 74.0°F23.3°C 93% 9.2 mph W14.8 kmh W 11.5 mph18.5 kmh 29.93 in1013.5 mb - 0.00 in0.0 mm 0.00 in0.0 mm
01:20 AM 76.1°F24.5°C 74.0°F23.3°C 93% 4.6 mph NE7.4 kmh NE 4.6 mph7.4 kmh 29.91 in1012.9 mb - 0.29 in7.4 mm 0.29 in7.4 mm
01:30 AM 75.4°F24.1°C 73.9°F23.3°C 95% 3.5 mph NW5.6 kmh NW 6.9 mph11.1 kmh 29.94 in1013.9 mb - 0.27 in6.9 mm 0.54 in13.7 mm
01:40 AM 75.5°F24.2°C 74.3°F23.5°C 96% 2.3 mph N3.7 kmh N 3.5 mph5.6 kmh 29.93 in1013.5 mb - 0.09 in2.3 mm 0.61 in15.5 mm
01:50 AM 75.5°F24.2°C 74.0°F23.3°C 95% 6.9 mph NW11.1 kmh NW 9.2 mph14.8 kmh 29.98 in1015.2 mb - 0.03 in0.8 mm 0.64 in16.3 mm
02:00 AM 74.1°F23.4°C 72.3°F22.4°C 94% 3.5 mph NE5.6 kmh NE 4.6 mph7.4 kmh 29.97 in1014.9 mb - 0.11 in2.8 mm 0.74 in18.8 mm
02:10 AM 73.1°F22.8°C 71.6°F22.0°C 95% 4.6 mph ESE7.4 kmh ESE 4.6 mph7.4 kmh 29.94 in1013.9 mb - 0.01 in0.3 mm 0.75 in19.1 mm
02:20 AM 72.7°F22.6°C 71.5°F21.9°C 96% 6.9 mph ESE11.1 kmh ESE 8.1 mph13.0 kmh 29.93 in1013.5 mb - 0.01 in0.3 mm 0.75 in19.1 mm
02:30 AM 72.9°F22.7°C 71.7°F22.1°C 96% 8.1 mph SE13.0 kmh SE 11.5 mph18.5 kmh 29.93 in1013.5 mb - 0.01 in0.3 mm 0.76 in19.3 mm
02:40 AM 72.7°F22.6°C 71.5°F21.9°C 96% 3.5 mph SE5.6 kmh SE 4.6 mph7.4 kmh 29.92 in1013.2 mb - 0.01 in0.3 mm 0.76 in19.3 mm
02:50 AM 72.6°F22.6°C 71.4°F21.9°C 96% 3.5 mph ESE5.6 kmh ESE 4.6 mph7.4 kmh 29.92 in1013.2 mb - 0.01 in0.3 mm 0.77 in19.6 mm
03:00 AM 72.5°F22.5°C 71.3°F21.8°C 96% 3.5 mph ESE5.6 kmh ESE 6.9 mph11.1 kmh 29.93 in1013.5 mb - 0.01 in0.3 mm 0.78 in19.8 mm
03:10 AM 72.4°F22.4°C 71.2°F21.8°C 96% 2.3 mph SE3.7 kmh SE 3.5 mph5.6 kmh 29.93 in1013.5 mb - 0.02 in0.5 mm 0.80 in20.3 mm
03:20 AM 72.3°F22.4°C 71.1°F21.7°C 96% Calm Calm 1.2 mph1.9 kmh 29.93 in1013.5 mb - 0.02 in0.5 mm 0.82 in20.8 mm
03:30 AM 72.2°F22.3°C 71.0°F21.7°C 96% 2.3 mph SE3.7 kmh SE 3.5 mph5.6 kmh 29.92 in1013.2 mb - 0.03 in0.8 mm 0.84 in21.3 mm
03:40 AM 72.2°F22.3°C 71.3°F21.8°C 97% 1.2 mph SE1.9 kmh SE 3.5 mph5.6 kmh 29.93 in1013.5 mb - 0.00 in0.0 mm 0.84 in21.3 mm
03:50 AM 72.1°F22.3°C 71.2°F21.8°C 97% Calm Calm 3.5 mph5.6 kmh 29.93 in1013.5 mb - 0.00 in0.0 mm 0.84 in21.3 mm
04:00 AM 72.2°F22.3°C 71.3°F21.8°C 97% 1.2 mph S1.9 kmh S 3.5 mph5.6 kmh 29.92 in1013.2 mb - 0.00 in0.0 mm 0.84 in21.3 mm
04:10 AM 71.9°F22.2°C 71.0°F21.7°C 97% Calm Calm -- 29.93 in1013.5 mb - 0.00 in0.0 mm 0.84 in21.3 mm
04:20 AM 71.7°F22.1°C 70.8°F21.6°C 97% Calm Calm 1.2 mph1.9 kmh 29.93 in1013.5 mb - 0.00 in0.0 mm 0.84 in21.3 mm
04:30 AM 71.8°F22.1°C 70.9°F21.6°C 97% 1.2 mph NW1.9 kmh NW 3.5 mph5.6 kmh 29.94 in1013.9 mb - 0.00 in0.0 mm 0.84 in21.3 mm
04:40 AM 71.9°F22.2°C 71.0°F21.7°C 97% Calm Calm -- 29.94 in1013.9 mb - 0.00 in0.0 mm 0.84 in21.3 mm
04:50 AM 71.8°F22.1°C 70.9°F21.6°C 97% Calm Calm -- 29.94 in1013.9 mb - 0.00 in0.0 mm 0.84 in21.3 mm
05:00 AM 71.8°F22.1°C 70.9°F21.6°C 97% 1.2 mph NW1.9 kmh NW 2.3 mph3.7 kmh 29.93 in1013.5 mb - 0.00 in0.0 mm 0.84 in21.3 mm
05:10 AM 71.7°F22.1°C 70.8°F21.6°C 97% Calm Calm -- 29.95 in1014.2 mb - 0.00 in0.0 mm 0.84 in21.3 mm
05:20 AM 71.6°F22.0°C 70.7°F21.5°C 97% Calm Calm -- 29.94 in1013.9 mb - 0.00 in0.0 mm 0.84 in21.3 mm
05:30 AM 71.6°F22.0°C 70.7°F21.5°C 97% Calm Calm -- 29.94 in1013.9 mb - 0.00 in0.0 mm 0.84 in21.3 mm
05:40 AM 71.7°F22.1°C 70.8°F21.6°C 97% Calm Calm 2.3 mph3.7 kmh 29.94 in1013.9 mb - 0.00 in0.0 mm 0.84 in21.3 mm
05:50 AM 71.7°F22.1°C 70.8°F21.6°C 97% Calm Calm 1.2 mph1.9 kmh 29.93 in1013.5 mb - 0.00 in0.0 mm 0.84 in21.3 mm
06:00 AM 71.8°F22.1°C 70.9°F21.6°C 97% Calm Calm -- 29.93 in1013.5 mb - 0.00 in0.0 mm 0.84 in21.3 mm
06:10 AM 71.8°F22.1°C 70.9°F21.6°C 97% Calm Calm -- 29.93 in1013.5 mb - 0.00 in0.0 mm 0.84 in21.3 mm
06:20 AM 71.8°F22.1°C 70.9°F21.6°C 97% Calm Calm -- 29.94 in1013.9 mb - 0.00 in0.0 mm 0.84 in21.3 mm
06:30 AM 71.8°F22.1°C 71.2°F21.8°C 98% Calm Calm -- 29.93 in1013.5 mb - 0.00 in0.0 mm 0.84 in21.3 mm
06:40 AM 71.9°F22.2°C 71.0°F21.7°C 97% 2.3 mph E3.7 kmh E 3.5 mph5.6 kmh 29.92 in1013.2 mb - 0.00 in0.0 mm 0.84 in21.3 mm
06:50 AM 71.9°F22.2°C 71.0°F21.7°C 97% 2.3 mph E3.7 kmh E 3.5 mph5.6 kmh 29.92 in1013.2 mb - 0.00 in0.0 mm 0.84 in21.3 mm
07:00 AM 71.9°F22.2°C 71.0°F21.7°C 97% 1.2 mph ESE1.9 kmh ESE 2.3 mph3.7 kmh 29.92 in1013.2 mb - 0.00 in0.0 mm 0.84 in21.3 mm
07:10 AM 72.1°F22.3°C 71.5°F21.9°C 98% Calm Calm 2.3 mph3.7 kmh 29.93 in1013.5 mb - 0.00 in0.0 mm 0.84 in21.3 mm
07:20 AM 72.3°F22.4°C 71.7°F22.1°C 98% 1.2 mph S1.9 kmh S 3.5 mph5.6 kmh 29.92 in1013.2 mb - 0.00 in0.0 mm 0.84 in21.3 mm
07:30 AM 72.8°F22.7°C 72.2°F22.3°C 98% 1.2 mph S1.9 kmh S 3.5 mph5.6 kmh 29.92 in1013.2 mb - 0.00 in0.0 mm 0.84 in21.3 mm
07:40 AM 73.2°F22.9°C 72.3°F22.4°C 97% 2.3 mph S3.7 kmh S 3.5 mph5.6 kmh 29.92 in1013.2 mb - 0.00 in0.0 mm 0.84 in21.3 mm
07:50 AM 73.8°F23.2°C 72.9°F22.7°C 97% 1.2 mph S1.9 kmh S 2.3 mph3.7 kmh 29.92 in1013.2 mb - 0.00 in0.0 mm 0.84 in21.3 mm
08:00 AM 74.2°F23.4°C 73.0°F22.8°C 96% 2.3 mph S3.7 kmh S 5.8 mph9.3 kmh 29.94 in1013.9 mb - 0.00 in0.0 mm 0.84 in21.3 mm
08:10 AM 74.1°F23.4°C 72.9°F22.7°C 96% 3.5 mph SW5.6 kmh SW 3.5 mph5.6 kmh 29.96 in1014.6 mb - 0.00 in0.0 mm 0.84 in21.3 mm
08:20 AM 73.9°F23.3°C 72.4°F22.4°C 95% 1.2 mph WSW1.9 kmh WSW 3.5 mph5.6 kmh 29.96 in1014.6 mb - 0.00 in0.0 mm 0.84 in21.3 mm
08:30 AM 73.7°F23.2°C 71.9°F22.2°C 94% 3.5 mph SW5.6 kmh SW 4.6 mph7.4 kmh 29.96 in1014.6 mb - 0.00 in0.0 mm 0.84 in21.3 mm
08:40 AM 73.7°F23.2°C 72.2°F22.3°C 95% 1.2 mph SE1.9 kmh SE 3.5 mph5.6 kmh 29.95 in1014.2 mb - 0.00 in0.0 mm 0.84 in21.3 mm
08:50 AM 73.8°F23.2°C 72.3°F22.4°C 95% 1.2 mph SE1.9 kmh SE 3.5 mph5.6 kmh 29.95 in1014.2 mb - 0.00 in0.0 mm 0.84 in21.3 mm
09:00 AM 73.9°F23.3°C 72.3°F22.4°C 95% 4.6 mph SE7.4 kmh SE 8.1 mph13.0 kmh 29.93 in1013.5 mb - 0.00 in0.0 mm 0.84 in21.3 mm
09:10 AM 75.1°F23.9°C 73.9°F23.3°C 96% 8.1 mph ESE13.0 kmh ESE 11.5 mph18.5 kmh 29.91 in1012.9 mb - 0.00 in0.0 mm 0.84 in21.3 mm
09:20 AM 77.2°F25.1°C 75.4°F24.1°C 94% 3.5 mph ESE5.6 kmh ESE 3.5 mph5.6 kmh 29.92 in1013.2 mb - 0.00 in0.0 mm 0.84 in21.3 mm
09:30 AM 77.0°F25.0°C 74.2°F23.4°C 91% 4.6 mph ESE7.4 kmh ESE 8.1 mph13.0 kmh 29.93 in1013.5 mb - 0.00 in0.0 mm 0.84 in21.3 mm
09:40 AM 77.0°F25.0°C 73.8°F23.2°C 90% Calm Calm 3.5 mph5.6 kmh 29.93 in1013.5 mb - 0.00 in0.0 mm 0.84 in21.3 mm
09:50 AM 77.5°F25.3°C 74.0°F23.3°C 89% Calm Calm -- 29.93 in1013.5 mb - 0.00 in0.0 mm 0.84 in21.3 mm
10:00 AM 77.7°F25.4°C 74.5°F23.6°C 90% Calm Calm 2.3 mph3.7 kmh 29.93 in1013.5 mb - 0.00 in0.0 mm 0.84 in21.3 mm
10:10 AM 77.6°F25.3°C 74.1°F23.4°C 89% 2.3 mph E3.7 kmh E 2.3 mph3.7 kmh 29.93 in1013.5 mb - 0.00 in0.0 mm 0.84 in21.3 mm
10:20 AM 78.1°F25.6°C 74.6°F23.7°C 89% 1.2 mph E1.9 kmh E -- 29.94 in1013.9 mb - 0.00 in0.0 mm 0.84 in21.3 mm
10:30 AM 78.3°F25.7°C 74.4°F23.6°C 88% Calm Calm -- 29.95 in1014.2 mb - 0.00 in0.0 mm 0.84 in21.3 mm
10:40 AM 79.3°F26.3°C 75.4°F24.1°C 88% Calm Calm 2.3 mph3.7 kmh 29.95 in1014.2 mb - 0.00 in0.0 mm 0.84 in21.3 mm
10:50 AM 80.3°F26.8°C 75.7°F24.3°C 86% 2.3 mph S3.7 kmh S 3.5 mph5.6 kmh 29.95 in1014.2 mb - 0.00 in0.0 mm 0.84 in21.3 mm
11:00 AM 80.6°F27.0°C 77.0°F25.0°C 89% Calm Calm 3.5 mph5.6 kmh 29.96 in1014.6 mb - 0.00 in0.0 mm 0.84 in21.3 mm
11:10 AM 80.5°F26.9°C 75.9°F24.4°C 86% Calm Calm -- 29.95 in1014.2 mb - 0.00 in0.0 mm 0.84 in21.3 mm
11:20 AM 80.8°F27.1°C 76.6°F24.8°C 87% 1.2 mph SSE1.9 kmh SSE 3.5 mph5.6 kmh 29.95 in1014.2 mb - 0.00 in0.0 mm 0.84 in21.3 mm
11:30 AM 80.9°F27.2°C 76.3°F24.6°C 86% 1.2 mph SSW1.9 kmh SSW 4.6 mph7.4 kmh 29.95 in1014.2 mb - 0.00 in0.0 mm 0.84 in21.3 mm
11:40 AM 82.0°F27.8°C 77.7°F25.4°C 87% 3.5 mph S5.6 kmh S 5.8 mph9.3 kmh 29.94 in1013.9 mb - 0.00 in0.0 mm 0.84 in21.3 mm
11:50 AM 81.5°F27.5°C 76.9°F24.9°C 86% 1.2 mph SSE1.9 kmh SSE 5.8 mph9.3 kmh 29.94 in1013.9 mb - 0.00 in0.0 mm 0.84 in21.3 mm
12:00 PM 81.5°F27.5°C 76.2°F24.6°C 84% 1.2 mph SSE1.9 kmh SSE 3.5 mph5.6 kmh 29.94 in1013.9 mb - 0.00 in0.0 mm 0.84 in21.3 mm
12:10 PM 83.1°F28.4°C 78.4°F25.8°C 86% 4.6 mph SE7.4 kmh SE 5.8 mph9.3 kmh 29.93 in1013.5 mb - 0.00 in0.0 mm 0.84 in21.3 mm
12:20 PM 83.5°F28.6°C 77.7°F25.4°C 83% 2.3 mph ESE3.7 kmh ESE 3.5 mph5.6 kmh 29.93 in1013.5 mb - 0.00 in0.0 mm 0.84 in21.3 mm
12:30 PM 84.2°F29.0°C 78.4°F25.8°C 83% 2.3 mph S3.7 kmh S 4.6 mph7.4 kmh 29.93 in1013.5 mb - 0.00 in0.0 mm 0.84 in21.3 mm
12:40 PM 84.4°F29.1°C 77.5°F25.3°C 80% 2.3 mph S3.7 kmh S 3.5 mph5.6 kmh 29.93 in1013.5 mb - 0.00 in0.0 mm 0.84 in21.3 mm
12:50 PM 83.9°F28.8°C 76.3°F24.6°C 78% 1.2 mph S1.9 kmh S 4.6 mph7.4 kmh 29.93 in1013.5 mb - 0.00 in0.0 mm 0.84 in21.3 mm
01:00 PM 84.2°F29.0°C 75.8°F24.3°C 76% 3.5 mph SW5.6 kmh SW 4.6 mph7.4 kmh 29.92 in1013.2 mb - 0.00 in0.0 mm 0.84 in21.3 mm
01:10 PM 84.9°F29.4°C 78.8°F26.0°C 82% 3.5 mph SE5.6 kmh SE 4.6 mph7.4 kmh 29.92 in1013.2 mb - 0.00 in0.0 mm 0.84 in21.3 mm
01:20 PM 85.9°F29.9°C 79.0°F26.1°C 80% 4.6 mph S7.4 kmh S 4.6 mph7.4 kmh 29.92 in1013.2 mb - 0.00 in0.0 mm 0.84 in21.3 mm
01:30 PM 85.4°F29.7°C 77.4°F25.2°C 77% 3.5 mph SSW5.6 kmh SSW 5.8 mph9.3 kmh 29.92 in1013.2 mb - 0.00 in0.0 mm 0.84 in21.3 mm
01:40 PM 85.4°F29.7°C 77.4°F25.2°C 77% 5.8 mph SW9.3 kmh SW 6.9 mph11.1 kmh 29.91 in1012.9 mb - 0.00 in0.0 mm 0.84 in21.3 mm
01:50 PM 85.8°F29.9°C 77.3°F25.2°C 76% 3.5 mph S5.6 kmh S 10.4 mph16.7 kmh 29.91 in1012.9 mb - 0.00 in0.0 mm 0.84 in21.3 mm
02:00 PM 86.7°F30.4°C 79.4°F26.3°C 79% 3.5 mph SSE5.6 kmh SSE 5.8 mph9.3 kmh 29.90 in1012.5 mb - 0.00 in0.0 mm 0.84 in21.3 mm
02:10 PM 87.0°F30.6°C 78.9°F26.1°C 77% 4.6 mph SW7.4 kmh SW 6.9 mph11.1 kmh 29.90 in1012.5 mb - 0.00 in0.0 mm 0.84 in21.3 mm
02:20 PM 86.9°F30.5°C 78.4°F25.8°C 76% 3.5 mph SSW5.6 kmh SSW 4.6 mph7.4 kmh 29.90 in1012.5 mb - 0.00 in0.0 mm 0.84 in21.3 mm
02:30 PM 86.6°F30.3°C 77.7°F25.4°C 75% 1.2 mph SW1.9 kmh SW 3.5 mph5.6 kmh 29.90 in1012.5 mb - 0.00 in0.0 mm 0.84 in21.3 mm
02:40 PM 87.4°F30.8°C 80.0°F26.7°C 79% 3.5 mph SE5.6 kmh SE 3.5 mph5.6 kmh 29.89 in1012.2 mb - 0.00 in0.0 mm 0.84 in21.3 mm
02:50 PM 86.9°F30.5°C 79.6°F26.4°C 79% 2.3 mph SE3.7 kmh SE 3.5 mph5.6 kmh 29.88 in1011.9 mb - 0.00 in0.0 mm 0.84 in21.3 mm
03:00 PM 87.5°F30.8°C 80.2°F26.8°C 79% 3.5 mph SE5.6 kmh SE 4.6 mph7.4 kmh 29.87 in1011.5 mb - 0.00 in0.0 mm 0.84 in21.3 mm
03:10 PM 87.9°F31.1°C 80.9°F27.2°C 80% 3.5 mph SE5.6 kmh SE 8.1 mph13.0 kmh 29.87 in1011.5 mb - 0.00 in0.0 mm 0.84 in21.3 mm
03:20 PM 88.5°F31.4°C 80.8°F27.1°C 78% 5.8 mph SE9.3 kmh SE 6.9 mph11.1 kmh 29.87 in1011.5 mb - 0.00 in0.0 mm 0.84 in21.3 mm
03:30 PM 87.6°F30.9°C 79.1°F26.2°C 76% 3.5 mph SSE5.6 kmh SSE 4.6 mph7.4 kmh 29.87 in1011.5 mb - 0.00 in0.0 mm 0.84 in21.3 mm
03:40 PM 88.0°F31.1°C 79.8°F26.6°C 77% 3.5 mph SE5.6 kmh SE 5.8 mph9.3 kmh 29.87 in1011.5 mb - 0.00 in0.0 mm 0.84 in21.3 mm
03:50 PM 88.1°F31.2°C 79.9°F26.6°C 77% 2.3 mph SSW3.7 kmh SSW 3.5 mph5.6 kmh 29.87 in1011.5 mb - 0.00 in0.0 mm 0.84 in21.3 mm
04:00 PM 88.2°F31.2°C 79.6°F26.4°C 76% 5.8 mph SE9.3 kmh SE 6.9 mph11.1 kmh 29.86 in1011.2 mb - 0.00 in0.0 mm 0.84 in21.3 mm
04:10 PM 88.9°F31.6°C 80.3°F26.8°C 76% 4.6 mph SE7.4 kmh SE 8.1 mph13.0 kmh 29.86 in1011.2 mb - 0.00 in0.0 mm 0.84 in21.3 mm
04:20 PM 89.1°F31.7°C 80.5°F26.9°C 76% 4.6 mph SSE7.4 kmh SSE 6.9 mph11.1 kmh 29.86 in1011.2 mb - 0.00 in0.0 mm 0.84 in21.3 mm
04:30 PM 88.5°F31.4°C 79.2°F26.2°C 74% 3.5 mph SSE5.6 kmh SSE 6.9 mph11.1 kmh 29.85 in1010.8 mb - 0.00 in0.0 mm 0.84 in21.3 mm
04:40 PM 88.9°F31.6°C 80.3°F26.8°C 76% 5.8 mph SE9.3 kmh SE 9.2 mph14.8 kmh 29.85 in1010.8 mb - 0.00 in0.0 mm 0.84 in21.3 mm
04:50 PM 88.7°F31.5°C 79.8°F26.6°C 75% 2.3 mph SSE3.7 kmh SSE 5.8 mph9.3 kmh 29.85 in1010.8 mb - 0.00 in0.0 mm 0.84 in21.3 mm
05:00 PM 89.2°F31.8°C 80.6°F27.0°C 76% 1.2 mph SSE1.9 kmh SSE 3.5 mph5.6 kmh 29.84 in1010.5 mb - 0.00 in0.0 mm 0.84 in21.3 mm
05:10 PM 89.0°F31.7°C 81.2°F27.3°C 78% 4.6 mph SSE7.4 kmh SSE 5.8 mph9.3 kmh 29.84 in1010.5 mb - 0.00 in0.0 mm 0.84 in21.3 mm
05:20 PM 88.9°F31.6°C 80.3°F26.8°C 76% 3.5 mph SSE5.6 kmh SSE 3.5 mph5.6 kmh 29.83 in1010.2 mb - 0.00 in0.0 mm 0.84 in21.3 mm
05:30 PM 88.2°F31.2°C 79.7°F26.5°C 76% 4.6 mph SE7.4 kmh SE 4.6 mph7.4 kmh 29.82 in1009.8 mb - 0.00 in0.0 mm 0.84 in21.3 mm
05:40 PM 87.8°F31.0°C 79.2°F26.2°C 76% 6.9 mph SE11.1 kmh SE 9.2 mph14.8 kmh 29.82 in1009.8 mb - 0.00 in0.0 mm 0.84 in21.3 mm
05:50 PM 87.1°F30.6°C 80.6°F27.0°C 81% 3.5 mph SSE5.6 kmh SSE 3.5 mph5.6 kmh 29.82 in1009.8 mb - 0.00 in0.0 mm 0.84 in21.3 mm
06:00 PM 86.7°F30.4°C 79.8°F26.6°C 80% 3.5 mph SE5.6 kmh SE 4.6 mph7.4 kmh 29.82 in1009.8 mb - 0.00 in0.0 mm 0.84 in21.3 mm
06:10 PM 86.1°F30.1°C 79.6°F26.4°C 81% 3.5 mph SE5.6 kmh SE 4.6 mph7.4 kmh 29.82 in1009.8 mb - 0.00 in0.0 mm 0.84 in21.3 mm
06:20 PM 87.4°F30.8°C 80.5°F26.9°C 80% 5.8 mph ESE9.3 kmh ESE 8.1 mph13.0 kmh 29.82 in1009.8 mb - 0.00 in0.0 mm 0.84 in21.3 mm
06:30 PM 87.7°F30.9°C 80.3°F26.8°C 79% 4.6 mph ESE7.4 kmh ESE 6.9 mph11.1 kmh 29.81 in1009.5 mb - 0.00 in0.0 mm 0.84 in21.3 mm
06:40 PM 86.9°F30.5°C 80.0°F26.7°C 80% 4.6 mph ESE7.4 kmh ESE 6.9 mph11.1 kmh 29.80 in1009.1 mb - 0.00 in0.0 mm 0.84 in21.3 mm
06:50 PM 86.1°F30.1°C 80.0°F26.7°C 82% 5.8 mph ESE9.3 kmh ESE 9.2 mph14.8 kmh 29.79 in1008.8 mb - 0.00 in0.0 mm 0.84 in21.3 mm
07:00 PM 85.0°F29.4°C 79.6°F26.4°C 84% 2.3 mph ESE3.7 kmh ESE 4.6 mph7.4 kmh 29.80 in1009.1 mb - 0.00 in0.0 mm 0.84 in21.3 mm
07:10 PM 84.3°F29.1°C 80.0°F26.7°C 87% 3.5 mph SE5.6 kmh SE 6.9 mph11.1 kmh 29.80 in1009.1 mb - 0.00 in0.0 mm 0.84 in21.3 mm
07:20 PM 84.3°F29.1°C 77.5°F25.3°C 80% 9.2 mph SSE14.8 kmh SSE 19.6 mph31.5 kmh 29.81 in1009.5 mb - 0.00 in0.0 mm 0.84 in21.3 mm
07:30 PM 81.8°F27.7°C 74.3°F23.5°C 78% 5.8 mph SE9.3 kmh SE 9.2 mph14.8 kmh 29.80 in1009.1 mb - 0.00 in0.0 mm 0.84 in21.3 mm
07:40 PM 80.2°F26.8°C 73.8°F23.2°C 81% 4.6 mph S7.4 kmh S 9.2 mph14.8 kmh 29.78 in1008.5 mb - 0.00 in0.0 mm 0.84 in21.3 mm
07:50 PM 80.5°F26.9°C 72.6°F22.6°C 77% 3.5 mph S5.6 kmh S 6.9 mph11.1 kmh 29.76 in1007.8 mb - 0.00 in0.0 mm 0.84 in21.3 mm
08:00 PM 79.5°F26.4°C 72.8°F22.7°C 80% 2.3 mph SE3.7 kmh SE 3.5 mph5.6 kmh 29.77 in1008.1 mb - 0.00 in0.0 mm 0.84 in21.3 mm
08:10 PM 79.4°F26.3°C 72.3°F22.4°C 79% 4.6 mph SE7.4 kmh SE 8.1 mph13.0 kmh 29.82 in1009.8 mb - 0.00 in0.0 mm 0.84 in21.3 mm
08:20 PM 79.6°F26.4°C 72.9°F22.7°C 80% 9.2 mph ESE14.8 kmh ESE 11.5 mph18.5 kmh 29.84 in1010.5 mb - 0.00 in0.0 mm 0.84 in21.3 mm
08:30 PM 78.9°F26.1°C 72.6°F22.6°C 81% 3.5 mph SE5.6 kmh SE 6.9 mph11.1 kmh 29.82 in1009.8 mb - 0.00 in0.0 mm 0.84 in21.3 mm
08:40 PM 78.5°F25.8°C 72.9°F22.7°C 83% 1.2 mph SSE1.9 kmh SSE 3.5 mph5.6 kmh 29.81 in1009.5 mb - 0.00 in0.0 mm 0.84 in21.3 mm
08:50 PM 78.0°F25.6°C 72.4°F22.4°C 83% Calm Calm 5.8 mph9.3 kmh 29.80 in1009.1 mb - 0.00 in0.0 mm 0.84 in21.3 mm
09:00 PM 77.8°F25.4°C 71.5°F21.9°C 81% 2.3 mph SE3.7 kmh SE 3.5 mph5.6 kmh 29.81 in1009.5 mb - 0.00 in0.0 mm 0.84 in21.3 mm
09:10 PM 77.8°F25.4°C 71.5°F21.9°C 81% 2.3 mph NE3.7 kmh NE 3.5 mph5.6 kmh 29.82 in1009.8 mb - 0.00 in0.0 mm 0.84 in21.3 mm
09:20 PM 78.2°F25.7°C 73.7°F23.2°C 86% 6.9 mph NNE11.1 kmh NNE 10.4 mph16.7 kmh 29.82 in1009.8 mb - 0.00 in0.0 mm 0.84 in21.3 mm
09:30 PM 78.2°F25.7°C 73.0°F22.8°C 84% 5.8 mph E9.3 kmh E 8.1 mph13.0 kmh 29.80 in1009.1 mb - 0.00 in0.0 mm 0.84 in21.3 mm
09:40 PM 78.7°F25.9°C 73.1°F22.8°C 83% 2.3 mph E3.7 kmh E 4.6 mph7.4 kmh 29.80 in1009.1 mb - 0.00 in0.0 mm 0.84 in21.3 mm
09:50 PM 78.3°F25.7°C 73.0°F22.8°C 84% 3.5 mph ESE5.6 kmh ESE 3.5 mph5.6 kmh 29.80 in1009.1 mb - 0.00 in0.0 mm 0.84 in21.3 mm
10:00 PM 78.2°F25.7°C 73.0°F22.8°C 84% 5.8 mph N9.3 kmh N 11.5 mph18.5 kmh 29.83 in1010.2 mb - 0.00 in0.0 mm 0.84 in21.3 mm
10:10 PM 76.5°F24.7°C 70.6°F21.4°C 82% 8.1 mph NNE13.0 kmh NNE 13.8 mph22.2 kmh 29.83 in1010.2 mb - 0.00 in0.0 mm 0.84 in21.3 mm
10:20 PM 74.3°F23.5°C 69.8°F21.0°C 86% 5.8 mph NNW9.3 kmh NNW 11.5 mph18.5 kmh 29.83 in1010.2 mb - 0.01 in0.3 mm 0.85 in21.6 mm
10:30 PM 73.0°F22.8°C 69.9°F21.1°C 90% 4.6 mph N7.4 kmh N 6.9 mph11.1 kmh 29.84 in1010.5 mb - 0.03 in0.8 mm 0.88 in22.4 mm
10:40 PM 72.2°F22.3°C 69.7°F20.9°C 92% 4.6 mph NNW7.4 kmh NNW 6.9 mph11.1 kmh 29.84 in1010.5 mb - 0.05 in1.3 mm 0.93 in23.6 mm
10:50 PM 71.8°F22.1°C 70.0°F21.1°C 94% 2.3 mph WNW3.7 kmh WNW 3.5 mph5.6 kmh 29.86 in1011.2 mb - 0.12 in3.0 mm 1.04 in26.4 mm
11:00 PM 71.3°F21.8°C 69.8°F21.0°C 95% 4.6 mph S7.4 kmh S 6.9 mph11.1 kmh 29.81 in1009.5 mb - 0.32 in8.1 mm 1.33 in33.8 mm
11:10 PM 71.3°F21.8°C 70.1°F21.2°C 96% 3.5 mph E5.6 kmh E 3.5 mph5.6 kmh 29.77 in1008.1 mb - 0.03 in0.8 mm 1.34 in34.0 mm
11:20 PM 71.6°F22.0°C 70.4°F21.3°C 96% 2.3 mph SE3.7 kmh SE 4.6 mph7.4 kmh 29.79 in1008.8 mb - 0.00 in0.0 mm 1.34 in34.0 mm
11:30 PM 71.9°F22.2°C 70.7°F21.5°C 96% 12.7 mph N20.4 kmh N 17.3 mph27.8 kmh 29.81 in1009.5 mb - 0.18 in4.6 mm 1.52 in38.6 mm
11:40 PM 72.1°F22.3°C 70.9°F21.6°C 96% 9.2 mph NNW14.8 kmh NNW 17.3 mph27.8 kmh 29.86 in1011.2 mb - 0.30 in7.6 mm 1.80 in45.7 mm
11:50 PM 71.2°F21.8°C 70.0°F21.1°C 96% 4.6 mph N7.4 kmh N 8.1 mph13.0 kmh 29.84 in1010.5 mb - 0.39 in9.9 mm 2.14 in54.4 mm